createdAt,value
2022-10-18T00:02:08.267Z,11.90
2022-10-18T00:04:35.396Z,11.90
2022-10-18T00:07:02.411Z,11.80
2022-10-18T00:09:29.487Z,11.80
2022-10-18T00:11:56.646Z,11.70
2022-10-18T00:14:23.680Z,11.70
2022-10-18T00:16:50.711Z,11.70
2022-10-18T00:19:17.738Z,11.60
2022-10-18T00:24:16.691Z,11.50
2022-10-18T00:26:43.794Z,11.50
2022-10-18T00:29:12.863Z,11.40
2022-10-18T00:31:39.949Z,11.40
2022-10-18T00:34:11.102Z,11.40
2022-10-18T00:36:38.117Z,11.30
2022-10-18T00:39:05.651Z,11.20
2022-10-18T00:41:33.131Z,11.10
2022-10-18T00:44:03.311Z,11.10
2022-10-18T00:46:34.141Z,11.10
2022-10-18T00:49:06.202Z,11.00
2022-10-18T00:51:37.806Z,11.00
2022-10-18T00:54:04.912Z,11.10
2022-10-18T00:56:31.967Z,11.10
2022-10-18T00:58:58.989Z,11.00
2022-10-18T01:01:28.382Z,11.00
2022-10-18T01:03:55.846Z,11.10
2022-10-18T01:06:22.871Z,11.10
2022-10-18T01:09:02.851Z,11.00
2022-10-18T01:11:43.724Z,11.00
2022-10-18T01:14:10.747Z,10.90
2022-10-18T01:16:39.528Z,10.80
2022-10-18T01:19:24.841Z,10.80
2022-10-18T01:21:51.800Z,10.70
2022-10-18T01:24:28.125Z,10.70
2022-10-18T01:27:07.456Z,10.70
2022-10-18T01:29:40.754Z,10.80
2022-10-18T01:32:10.145Z,10.70
2022-10-18T01:34:37.181Z,10.70
2022-10-18T01:37:05.166Z,10.60
2022-10-18T01:39:33.181Z,10.60
2022-10-18T01:42:00.727Z,10.50
2022-10-18T01:44:27.978Z,10.60
2022-10-18T01:46:55.203Z,10.60
2022-10-18T01:49:22.244Z,10.60
2022-10-18T01:51:49.269Z,10.50
2022-10-18T01:54:17.966Z,10.40
2022-10-18T01:57:04.583Z,10.40
2022-10-18T01:59:31.728Z,10.30
2022-10-18T02:02:02.522Z,10.20
2022-10-18T02:04:52.976Z,10.30
2022-10-18T02:07:31.303Z,10.30
2022-10-18T02:10:04.585Z,10.20
2022-10-18T02:12:31.888Z,10.20
2022-10-18T02:14:59.436Z,10.20
2022-10-18T02:17:26.846Z,10.20
2022-10-18T02:19:54.067Z,10.20
2022-10-18T02:22:21.096Z,10.20
2022-10-18T02:24:51.613Z,10.20
2022-10-18T02:27:18.626Z,10.20
2022-10-18T02:29:45.657Z,10.20
2022-10-18T02:32:15.699Z,10.30
2022-10-18T02:34:54.911Z,10.30
2022-10-18T02:37:21.989Z,10.20
2022-10-18T02:39:49.269Z,10.30
2022-10-18T02:42:16.355Z,10.30
2022-10-18T02:44:43.382Z,10.20
2022-10-18T02:47:10.613Z,10.10
2022-10-18T02:49:37.633Z,10.10
2022-10-18T02:52:04.642Z,10.00
2022-10-18T02:54:31.647Z,10.10
2022-10-18T02:56:58.734Z,10.10
2022-10-18T02:59:25.815Z,10.10
2022-10-18T03:01:52.957Z,10.20
2022-10-18T03:04:20.104Z,10.10
2022-10-18T03:06:47.314Z,10.10
2022-10-18T03:09:14.315Z,10.00
2022-10-18T03:11:41.326Z,10.00
2022-10-18T03:14:08.508Z,10.10
2022-10-18T03:16:35.591Z,10.10
2022-10-18T03:19:02.607Z,10.10
2022-10-18T03:21:29.629Z,10.10
2022-10-18T03:23:58.519Z,10.10
2022-10-18T03:26:25.709Z,10.10
2022-10-18T03:28:52.778Z,10.10
2022-10-18T03:31:19.966Z,10.10
2022-10-18T03:33:47.063Z,10.10
2022-10-18T03:36:14.158Z,10.10
2022-10-18T03:38:41.307Z,10.00
2022-10-18T03:41:08.310Z,10.00
2022-10-18T03:43:35.335Z,10.10
2022-10-18T03:46:02.355Z,10.20
2022-10-18T03:48:29.423Z,10.00
2022-10-18T03:50:56.520Z,10.00
2022-10-18T03:53:23.551Z,10.00
2022-10-18T03:55:51.455Z,10.00
2022-10-18T03:58:18.543Z,10.00
2022-10-18T04:00:45.578Z,9.90
2022-10-18T04:03:12.576Z,9.90
2022-10-18T04:05:39.663Z,9.90
2022-10-18T04:08:06.680Z,9.90
2022-10-18T04:10:33.694Z,9.90
2022-10-18T04:13:00.778Z,9.90
2022-10-18T04:15:27.790Z,9.90
2022-10-18T04:17:54.800Z,9.90
2022-10-18T04:20:21.868Z,9.90
2022-10-18T04:22:48.968Z,9.90
2022-10-18T04:25:16.201Z,9.90
2022-10-18T04:27:43.287Z,9.90
2022-10-18T04:30:10.533Z,9.90
2022-10-18T04:32:37.559Z,10.00
2022-10-18T04:35:05.443Z,10.00
2022-10-18T04:37:33.090Z,10.00
2022-10-18T04:40:00.315Z,10.00
2022-10-18T04:42:27.328Z,10.00
2022-10-18T04:44:54.365Z,10.10
2022-10-18T04:47:21.366Z,10.10
2022-10-18T04:49:48.379Z,10.10
2022-10-18T04:52:15.414Z,10.20
2022-10-18T04:54:42.440Z,10.20
2022-10-18T04:57:09.450Z,10.30
2022-10-18T04:59:37.345Z,10.30
2022-10-18T05:02:04.773Z,10.40
2022-10-18T05:04:31.851Z,10.40
2022-10-18T05:06:59.009Z,10.40
2022-10-18T05:09:26.030Z,10.30
2022-10-18T05:11:53.046Z,10.40
2022-10-18T05:14:20.060Z,10.50
2022-10-18T05:16:47.073Z,10.50
2022-10-18T05:19:14.140Z,10.60
2022-10-18T05:21:41.242Z,10.60
2022-10-18T05:24:10.010Z,10.60
2022-10-18T05:26:37.022Z,10.60
2022-10-18T05:29:04.202Z,10.70
2022-10-18T05:31:31.305Z,10.80
2022-10-18T05:33:58.318Z,10.80
2022-10-18T05:36:26.124Z,10.90
2022-10-18T05:38:53.957Z,10.90
2022-10-18T05:41:21.004Z,10.90
2022-10-18T05:43:48.042Z,10.90
2022-10-18T05:46:15.796Z,11.00
2022-10-18T05:48:44.026Z,11.00
2022-10-18T05:51:11.171Z,11.10
2022-10-18T05:53:38.490Z,11.10
2022-10-18T05:56:06.025Z,11.20
2022-10-18T05:58:33.226Z,11.30
2022-10-18T06:01:00.983Z,11.40
2022-10-18T06:03:28.333Z,11.50
2022-10-18T06:06:01.455Z,11.60
2022-10-18T06:08:28.467Z,11.70
2022-10-18T06:10:55.554Z,11.80
2022-10-18T06:13:22.550Z,11.80
2022-10-18T06:15:49.662Z,11.90
2022-10-18T06:18:16.684Z,11.90
2022-10-18T06:20:43.704Z,12.00
2022-10-18T06:23:10.709Z,12.00
2022-10-18T06:25:37.710Z,12.00
2022-10-18T06:28:07.848Z,12.10
2022-10-18T06:30:37.223Z,12.10
2022-10-18T06:33:04.266Z,12.20
2022-10-18T06:35:31.287Z,12.30
2022-10-18T06:37:58.304Z,12.40
2022-10-18T06:40:25.387Z,12.40
2022-10-18T06:43:00.648Z,12.30
2022-10-18T06:45:37.630Z,12.30
2022-10-18T06:48:04.826Z,12.30
2022-10-18T06:50:32.122Z,12.40
2022-10-18T06:52:59.177Z,12.40
2022-10-18T06:55:26.187Z,12.40
2022-10-18T06:57:53.222Z,12.50
2022-10-18T07:00:20.244Z,12.50
2022-10-18T07:02:47.329Z,12.60
2022-10-18T07:05:14.390Z,12.70
2022-10-18T07:07:41.428Z,12.80
2022-10-18T07:10:11.174Z,12.90
2022-10-18T07:12:39.813Z,13.00
2022-10-18T07:15:09.449Z,13.10
2022-10-18T07:17:36.753Z,13.10
2022-10-18T07:20:04.369Z,13.20
2022-10-18T07:22:31.466Z,13.30
2022-10-18T07:24:58.485Z,13.40
2022-10-18T07:27:25.506Z,13.50
2022-10-18T07:29:52.622Z,13.50
2022-10-18T07:32:19.699Z,13.60
2022-10-18T07:34:46.761Z,13.70
2022-10-18T07:37:13.779Z,13.70
2022-10-18T07:39:40.798Z,13.80
2022-10-18T07:42:10.756Z,13.80
2022-10-18T07:44:37.791Z,13.80
2022-10-18T07:47:04.952Z,13.90
2022-10-18T07:49:31.964Z,14.00
2022-10-18T07:51:59.006Z,14.10
2022-10-18T07:54:26.028Z,14.20
2022-10-18T07:56:53.201Z,14.20
2022-10-18T07:59:20.251Z,14.20
2022-10-18T08:01:47.290Z,14.30
2022-10-18T08:04:16.512Z,14.30
2022-10-18T08:06:43.700Z,14.40
2022-10-18T08:09:10.738Z,14.40
2022-10-18T08:11:37.757Z,14.50
2022-10-18T08:14:04.774Z,14.60
2022-10-18T08:18:59.834Z,14.80
2022-10-18T08:21:27.068Z,15.00
2022-10-18T08:23:54.174Z,15.20
2022-10-18T08:26:21.635Z,15.40
2022-10-18T08:28:54.056Z,15.60
2022-10-18T08:31:25.605Z,15.80
2022-10-18T08:33:53.427Z,16.00
2022-10-18T08:36:20.654Z,16.20
2022-10-18T08:38:49.211Z,16.40
2022-10-18T08:41:25.559Z,16.70
2022-10-18T08:44:04.687Z,16.90
2022-10-18T08:46:34.750Z,17.10
2022-10-18T08:49:01.771Z,17.30
2022-10-18T08:51:35.603Z,17.50
2022-10-18T08:54:11.675Z,17.70
2022-10-18T08:56:42.679Z,17.80
2022-10-18T08:59:10.108Z,18.10
2022-10-18T09:02:00.476Z,18.30
2022-10-18T09:04:53.679Z,18.50
2022-10-18T09:07:39.238Z,18.60
2022-10-18T09:10:21.583Z,18.80
2022-10-18T09:12:54.767Z,18.80
2022-10-18T09:15:29.818Z,18.70
2022-10-18T09:18:04.123Z,18.80
2022-10-18T09:20:33.847Z,18.90
2022-10-18T09:23:20.326Z,19.00
2022-10-18T09:25:55.455Z,19.20
2022-10-18T09:28:42.050Z,19.50
2022-10-18T09:31:15.177Z,19.70
2022-10-18T09:33:42.199Z,20.00
2022-10-18T09:36:11.470Z,20.20
2022-10-18T09:38:45.801Z,20.40
2022-10-18T09:41:15.974Z,20.50
2022-10-18T09:43:47.715Z,20.50
2022-10-18T09:46:15.017Z,20.40
2022-10-18T09:48:46.357Z,20.40
2022-10-18T09:51:23.685Z,20.50
2022-10-18T09:53:50.774Z,20.40
2022-10-18T09:56:18.656Z,20.40
2022-10-18T09:58:46.594Z,20.40
2022-10-18T10:01:14.677Z,20.40
2022-10-18T10:03:41.734Z,20.40
2022-10-18T10:06:11.767Z,20.30
2022-10-18T10:08:42.493Z,20.30
2022-10-18T10:11:28.677Z,20.20
2022-10-18T10:16:57.132Z,20.00
2022-10-18T10:19:28.305Z,20.00
2022-10-18T10:21:57.356Z,19.90
2022-10-18T10:24:28.813Z,20.00
2022-10-18T10:26:59.263Z,20.10
2022-10-18T10:29:45.319Z,20.20
2022-10-18T10:32:12.853Z,20.30
2022-10-18T10:34:43.841Z,20.30
2022-10-18T10:37:32.027Z,20.40
2022-10-18T10:40:19.284Z,20.50
2022-10-18T10:43:00.054Z,20.60
2022-10-18T10:46:02.628Z,20.70
2022-10-18T10:48:33.750Z,20.80
2022-10-18T10:51:02.122Z,21.00
2022-10-18T10:53:42.677Z,21.00
2022-10-18T10:56:17.114Z,21.00
2022-10-18T10:58:44.145Z,21.20
2022-10-18T11:01:30.534Z,21.40
2022-10-18T11:03:58.906Z,21.50
2022-10-18T11:06:29.914Z,21.60
2022-10-18T11:08:57.386Z,21.50
2022-10-18T11:11:33.896Z,21.60
2022-10-18T11:14:26.659Z,21.60
2022-10-18T11:16:56.377Z,21.60
2022-10-18T11:19:34.619Z,21.60
2022-10-18T11:22:01.907Z,21.70
2022-10-18T11:24:28.917Z,21.70
2022-10-18T11:27:05.263Z,21.60
2022-10-18T11:29:32.500Z,21.60
2022-10-18T11:31:59.530Z,21.70
2022-10-18T11:34:44.983Z,21.80
2022-10-18T11:37:31.121Z,21.90
2022-10-18T11:40:08.551Z,21.90
2022-10-18T11:42:40.077Z,22.10
2022-10-18T11:45:13.428Z,22.10
2022-10-18T11:47:40.445Z,22.10
2022-10-18T11:50:26.721Z,22.20
2022-10-18T11:53:09.182Z,22.20
2022-10-18T11:55:55.078Z,22.20
2022-10-18T11:58:33.254Z,22.30
2022-10-18T12:01:10.558Z,22.30
2022-10-18T12:03:40.585Z,22.30
2022-10-18T12:06:12.430Z,22.40
2022-10-18T12:08:40.591Z,22.40
2022-10-18T12:11:20.196Z,22.50
2022-10-18T12:13:47.217Z,22.50
2022-10-18T12:16:14.235Z,22.60
2022-10-18T12:21:26.505Z,22.70
2022-10-18T12:23:55.378Z,22.70
2022-10-18T12:26:22.379Z,22.60
2022-10-18T12:28:52.507Z,22.60
2022-10-18T12:31:39.789Z,22.60
2022-10-18T12:34:17.747Z,22.80
2022-10-18T12:36:55.060Z,22.80
2022-10-18T12:39:43.989Z,22.90
2022-10-18T12:42:18.411Z,22.80
2022-10-18T12:44:45.488Z,22.80
2022-10-18T12:47:20.683Z,22.80
2022-10-18T12:49:47.703Z,22.90
2022-10-18T12:52:22.004Z,22.90
2022-10-18T12:55:08.046Z,22.80
2022-10-18T12:57:53.730Z,22.80
2022-10-18T13:00:29.630Z,22.80
2022-10-18T13:03:08.930Z,22.80
2022-10-18T13:05:53.512Z,22.90
2022-10-18T13:08:27.940Z,22.80
2022-10-18T13:11:01.191Z,22.70
2022-10-18T13:13:40.233Z,22.60
2022-10-18T13:16:13.660Z,22.40
2022-10-18T13:18:54.225Z,22.30
2022-10-18T13:21:40.371Z,22.30
2022-10-18T13:24:10.588Z,22.20
2022-10-18T13:26:44.418Z,22.20
2022-10-18T13:29:30.283Z,22.10
2022-10-18T13:32:14.645Z,22.10
2022-10-18T13:34:41.704Z,22.10
2022-10-18T13:37:08.762Z,22.10
2022-10-18T13:39:35.982Z,22.20
2022-10-18T13:42:03.028Z,22.20
2022-10-18T13:44:40.117Z,22.20
2022-10-18T13:47:07.150Z,22.20
2022-10-18T13:49:37.135Z,22.20
2022-10-18T13:52:23.074Z,22.20
2022-10-18T13:54:56.298Z,22.20
2022-10-18T13:57:42.309Z,22.10
2022-10-18T14:00:48.280Z,22.00
2022-10-18T14:03:26.967Z,22.00
2022-10-18T14:06:07.687Z,21.90
2022-10-18T14:08:35.535Z,21.80
2022-10-18T14:11:14.767Z,21.80
2022-10-18T14:13:41.931Z,21.70
2022-10-18T14:16:24.555Z,21.60
2022-10-18T14:18:51.589Z,21.50
2022-10-18T14:21:27.448Z,21.40
2022-10-18T14:23:57.590Z,21.30
2022-10-18T14:26:28.526Z,21.20
2022-10-18T14:29:02.559Z,21.10
2022-10-18T14:31:29.710Z,21.10
2022-10-18T14:33:58.249Z,21.00
2022-10-18T14:36:26.838Z,21.00
2022-10-18T14:38:57.775Z,21.10
2022-10-18T14:41:25.021Z,21.10
2022-10-18T14:43:52.535Z,21.20
2022-10-18T14:46:27.315Z,21.10
2022-10-18T14:48:57.105Z,21.20
2022-10-18T14:51:25.867Z,21.10
2022-10-18T14:53:52.886Z,21.00
2022-10-18T14:56:26.922Z,21.00
2022-10-18T14:58:54.268Z,21.10
2022-10-18T15:01:21.679Z,21.00
2022-10-18T15:03:48.811Z,20.90
2022-10-18T15:06:17.750Z,20.80
2022-10-18T15:08:44.859Z,20.80
2022-10-18T15:11:14.236Z,20.80
2022-10-18T15:13:44.480Z,20.80
2022-10-18T15:16:15.735Z,20.80
2022-10-18T15:18:42.825Z,20.80
2022-10-18T15:21:16.533Z,20.80
2022-10-18T15:23:43.550Z,20.60
2022-10-18T15:26:11.489Z,20.60
2022-10-18T15:28:49.429Z,20.60
2022-10-18T15:31:19.826Z,20.50
2022-10-18T15:33:46.856Z,20.50
2022-10-18T15:36:20.531Z,20.50
2022-10-18T15:38:49.960Z,20.40
2022-10-18T15:41:36.143Z,20.50
2022-10-18T15:44:10.122Z,20.50
2022-10-18T15:46:39.071Z,20.50
2022-10-18T15:49:24.383Z,20.50
2022-10-18T15:52:03.559Z,20.50
2022-10-18T15:54:30.762Z,20.50
2022-10-18T15:56:57.786Z,20.50
2022-10-18T15:59:26.054Z,20.40
2022-10-18T16:01:53.202Z,20.40
2022-10-18T16:04:20.303Z,20.30
2022-10-18T16:06:47.318Z,20.20
2022-10-18T16:09:15.789Z,20.20
2022-10-18T16:11:42.905Z,20.10
2022-10-18T16:14:09.932Z,20.00
2022-10-18T16:16:36.973Z,19.90
2022-10-18T16:19:03.973Z,19.80
2022-10-18T16:21:31.993Z,19.70
2022-10-18T16:23:59.021Z,19.60
2022-10-18T16:26:26.133Z,19.50
2022-10-18T16:28:53.496Z,19.50
2022-10-18T16:31:21.864Z,19.40
2022-10-18T16:33:49.210Z,19.20
2022-10-18T16:36:16.751Z,19.10
2022-10-18T16:38:43.819Z,18.90
2022-10-18T16:41:10.991Z,18.70
2022-10-18T16:43:38.414Z,18.60
2022-10-18T16:46:05.925Z,18.50
2022-10-18T16:48:33.070Z,18.40
2022-10-18T16:51:00.161Z,18.30
2022-10-18T16:53:27.912Z,18.30
2022-10-18T16:55:56.069Z,18.10
2022-10-18T17:00:55.187Z,17.90
2022-10-18T17:03:22.353Z,17.80
2022-10-18T17:05:49.411Z,17.80
2022-10-18T17:08:26.251Z,17.80
2022-10-18T17:10:54.186Z,17.70
2022-10-18T17:13:21.401Z,17.60
2022-10-18T17:15:48.710Z,17.50
2022-10-18T17:18:21.732Z,17.40
2022-10-18T17:20:48.972Z,17.40
2022-10-18T17:23:16.203Z,17.40
2022-10-18T17:25:58.991Z,17.40
2022-10-18T17:28:34.197Z,17.30
2022-10-18T17:31:01.870Z,17.30
2022-10-18T17:33:28.947Z,17.30
2022-10-18T17:35:55.973Z,17.30
2022-10-18T17:38:22.994Z,17.20
2022-10-18T17:40:52.549Z,17.10
2022-10-18T17:43:19.577Z,17.10
2022-10-18T17:45:56.119Z,17.10
2022-10-18T17:48:24.479Z,17.00
2022-10-18T17:50:51.555Z,17.00
2022-10-18T17:53:22.718Z,17.00
2022-10-18T17:55:49.794Z,16.90
2022-10-18T17:58:16.801Z,16.90
2022-10-18T18:00:43.857Z,16.90
2022-10-18T18:03:11.071Z,16.80
2022-10-18T18:05:38.112Z,16.80
2022-10-18T18:08:05.230Z,16.70
2022-10-18T18:10:32.775Z,16.70
2022-10-18T18:13:00.086Z,16.70
2022-10-18T18:15:27.103Z,16.70
2022-10-18T18:17:58.121Z,16.80
2022-10-18T18:20:25.690Z,16.70
2022-10-18T18:22:52.757Z,16.70
2022-10-18T18:25:19.781Z,16.60
2022-10-18T18:27:46.833Z,16.60
2022-10-18T18:30:15.296Z,16.60
2022-10-18T18:32:42.442Z,16.70
2022-10-18T18:35:09.452Z,16.60
2022-10-18T18:37:36.467Z,16.60
2022-10-18T18:40:03.892Z,16.60
2022-10-18T18:42:31.941Z,16.60
2022-10-18T18:44:59.258Z,16.50
2022-10-18T18:47:27.353Z,16.50
2022-10-18T18:49:54.417Z,16.40
2022-10-18T18:52:21.551Z,16.40
2022-10-18T18:54:48.579Z,16.40
2022-10-18T18:57:16.502Z,16.40
2022-10-18T18:59:43.533Z,16.40
2022-10-18T19:02:10.710Z,16.40
2022-10-18T19:04:37.973Z,16.40
2022-10-18T19:07:04.996Z,16.40
2022-10-18T19:09:32.714Z,16.40
2022-10-18T19:11:59.743Z,16.30
2022-10-18T19:14:28.880Z,16.30
2022-10-18T19:16:57.794Z,16.30
2022-10-18T19:19:25.471Z,16.30
2022-10-18T19:21:53.297Z,16.20
2022-10-18T19:24:20.589Z,16.20
2022-10-18T19:26:48.445Z,16.20
2022-10-18T19:29:16.471Z,16.20
2022-10-18T19:31:43.684Z,16.10
2022-10-18T19:34:11.585Z,16.10
2022-10-18T19:36:38.956Z,16.00
2022-10-18T19:39:06.488Z,15.90
2022-10-18T19:41:33.573Z,15.90
2022-10-18T19:44:00.629Z,15.80
2022-10-18T19:46:27.667Z,15.70
2022-10-18T19:48:54.777Z,15.70
2022-10-18T19:51:25.480Z,15.60
2022-10-18T19:53:55.098Z,15.70
2022-10-18T19:56:23.163Z,15.60
2022-10-18T19:58:50.270Z,15.40
2022-10-18T20:01:17.390Z,15.40
2022-10-18T20:03:44.590Z,15.30
2022-10-18T20:06:11.626Z,15.30
2022-10-18T20:08:38.667Z,15.20
2022-10-18T20:11:12.668Z,15.20
2022-10-18T20:13:39.807Z,15.10
2022-10-18T20:16:07.447Z,15.10
2022-10-18T20:18:34.483Z,15.10
2022-10-18T20:21:03.847Z,15.00
2022-10-18T20:23:32.526Z,14.90
2022-10-18T20:26:00.158Z,15.00
2022-10-18T20:28:27.329Z,14.90
2022-10-18T20:31:01.365Z,14.90
2022-10-18T20:33:28.432Z,14.80
2022-10-18T20:35:55.620Z,14.80
2022-10-18T20:38:22.681Z,14.80
2022-10-18T20:40:49.729Z,14.70
2022-10-18T20:43:16.784Z,14.70
2022-10-18T20:45:43.821Z,14.70
2022-10-18T20:48:10.850Z,14.70
2022-10-18T20:50:40.354Z,14.70
2022-10-18T20:53:07.388Z,14.70
2022-10-18T20:55:36.394Z,14.70
2022-10-18T20:58:03.410Z,14.60
2022-10-18T21:00:30.599Z,14.60
2022-10-18T21:02:58.066Z,14.60
2022-10-18T21:05:25.098Z,14.60
2022-10-18T21:07:52.127Z,14.50
2022-10-18T21:10:19.144Z,14.50
2022-10-18T21:12:49.187Z,14.40
2022-10-18T21:15:16.339Z,14.40
2022-10-18T21:17:43.416Z,14.30
2022-10-18T21:20:10.831Z,14.30
2022-10-18T21:22:37.829Z,14.30
2022-10-18T21:25:05.206Z,14.30
2022-10-18T21:27:32.210Z,14.30
2022-10-18T21:29:59.274Z,14.30
2022-10-18T21:32:26.297Z,14.30
2022-10-18T21:34:53.316Z,14.20
2022-10-18T21:37:20.694Z,14.20
2022-10-18T21:39:47.958Z,14.20
2022-10-18T21:42:14.952Z,14.10
2022-10-18T21:44:41.979Z,14.10
2022-10-18T21:47:09.012Z,14.10
2022-10-18T21:49:36.025Z,14.10
2022-10-18T21:52:05.290Z,14.10
2022-10-18T21:54:32.289Z,14.20
2022-10-18T21:56:59.293Z,14.10
2022-10-18T21:59:26.324Z,14.00
2022-10-18T22:01:53.354Z,14.00
2022-10-18T22:04:23.827Z,14.00
2022-10-18T22:06:51.050Z,13.90
2022-10-18T22:09:18.178Z,13.90
2022-10-18T22:11:46.671Z,14.00
2022-10-18T22:14:13.689Z,14.00
2022-10-18T22:16:40.696Z,14.10
2022-10-18T22:19:07.930Z,14.20
2022-10-18T22:21:35.060Z,14.10
2022-10-18T22:24:03.893Z,14.10
2022-10-18T22:26:32.478Z,14.10
2022-10-18T22:29:00.501Z,14.10
2022-10-18T22:31:31.189Z,14.00
2022-10-18T22:33:58.987Z,14.00
2022-10-18T22:36:26.148Z,14.00
2022-10-18T22:38:53.178Z,13.90
2022-10-18T22:41:20.274Z,13.90
2022-10-18T22:43:47.714Z,13.90
2022-10-18T22:46:14.732Z,13.90
2022-10-18T22:48:41.834Z,13.90
2022-10-18T22:51:08.910Z,13.90
2022-10-18T22:53:36.062Z,13.80
2022-10-18T22:56:03.175Z,13.70
2022-10-18T22:58:30.278Z,13.80
2022-10-18T23:01:20.672Z,13.80
2022-10-18T23:03:51.787Z,13.80
2022-10-18T23:06:22.882Z,13.70
2022-10-18T23:08:50.146Z,13.70
2022-10-18T23:11:17.196Z,13.70
2022-10-18T23:13:44.366Z,13.70
2022-10-18T23:16:11.426Z,13.80
2022-10-18T23:21:07.922Z,13.80
2022-10-18T23:23:35.629Z,13.90
2022-10-18T23:26:06.424Z,14.00
2022-10-18T23:28:34.719Z,14.10
2022-10-18T23:31:14.803Z,14.10
2022-10-18T23:33:41.833Z,14.10
2022-10-18T23:36:08.906Z,14.10
2022-10-18T23:38:36.394Z,14.10
2022-10-18T23:41:03.682Z,14.20
2022-10-18T23:43:30.811Z,14.20
2022-10-18T23:45:57.827Z,14.20
2022-10-18T23:48:24.851Z,14.20
2022-10-18T23:50:51.891Z,14.30
2022-10-18T23:53:21.903Z,14.30
2022-10-18T23:55:58.812Z,14.40
2022-10-18T23:58:25.996Z,14.30
